createdAt,value
2022-11-02T00:00:30.128Z,0.00
2022-11-02T00:01:30.326Z,0.00
2022-11-02T00:02:30.416Z,0.00
2022-11-02T00:03:30.510Z,0.00
2022-11-02T00:04:30.618Z,0.00
2022-11-02T00:05:30.745Z,0.00
2022-11-02T00:06:30.839Z,0.00
2022-11-02T00:07:30.947Z,0.00
2022-11-02T00:08:31.046Z,0.00
2022-11-02T00:09:31.189Z,0.00
2022-11-02T00:10:31.267Z,0.00
2022-11-02T00:11:31.406Z,0.00
2022-11-02T00:12:31.558Z,0.00
2022-11-02T00:13:31.713Z,0.00
2022-11-02T00:14:31.848Z,0.00
2022-11-02T00:15:31.917Z,0.00
2022-11-02T00:16:32.005Z,0.00
2022-11-02T00:17:32.146Z,0.00
2022-11-02T00:18:32.250Z,0.00
2022-11-02T00:19:32.394Z,0.00
2022-11-02T00:20:32.494Z,0.00
2022-11-02T00:21:32.614Z,0.00
2022-11-02T00:22:32.747Z,0.00
2022-11-02T00:23:32.865Z,0.00
2022-11-02T00:24:32.994Z,0.00
2022-11-02T00:25:33.094Z,0.00
2022-11-02T00:26:33.241Z,0.00
2022-11-02T00:27:33.351Z,0.00
2022-11-02T00:28:33.473Z,0.00
2022-11-02T00:29:34.103Z,0.00
2022-11-02T00:30:33.710Z,0.00
2022-11-02T00:31:33.866Z,0.00
2022-11-02T00:32:33.962Z,0.00
2022-11-02T00:33:34.081Z,0.00
2022-11-02T00:34:34.211Z,0.00
2022-11-02T00:35:34.302Z,0.00
2022-11-02T00:36:34.451Z,0.00
2022-11-02T00:37:34.574Z,0.00
2022-11-02T00:38:34.749Z,0.00
2022-11-02T00:39:34.889Z,0.00
2022-11-02T00:40:34.972Z,0.00
2022-11-02T00:41:35.117Z,0.00
2022-11-02T00:42:35.260Z,0.00
2022-11-02T00:43:35.361Z,0.00
2022-11-02T00:44:35.500Z,0.00
2022-11-02T00:45:35.588Z,0.00
2022-11-02T00:46:35.725Z,0.00
2022-11-02T00:47:35.813Z,0.00
2022-11-02T00:48:35.926Z,0.00
2022-11-02T00:49:36.069Z,0.00
2022-11-02T00:50:36.170Z,0.00
2022-11-02T00:51:36.287Z,0.00
2022-11-02T00:52:36.393Z,0.00
2022-11-02T00:53:36.515Z,0.00
2022-11-02T00:54:36.688Z,0.00
2022-11-02T00:55:36.795Z,0.00
2022-11-02T00:56:36.917Z,0.00
2022-11-02T00:57:37.016Z,0.00
2022-11-02T00:58:37.160Z,0.00
2022-11-02T00:59:37.295Z,0.00
2022-11-02T01:00:37.394Z,0.00
2022-11-02T01:01:37.765Z,0.00
2022-11-02T01:02:37.711Z,0.00
2022-11-02T01:03:37.779Z,0.00
2022-11-02T01:04:37.865Z,0.00
2022-11-02T01:05:38.007Z,0.00
2022-11-02T01:06:38.111Z,0.00
2022-11-02T01:07:38.304Z,0.00
2022-11-02T01:08:38.385Z,0.00
2022-11-02T01:09:38.565Z,0.00
2022-11-02T01:10:40.639Z,0.00
2022-11-02T01:11:39.764Z,0.00
2022-11-02T01:12:38.903Z,0.00
2022-11-02T01:13:39.007Z,0.00
2022-11-02T01:14:39.197Z,0.00
2022-11-02T01:15:39.422Z,0.00
2022-11-02T01:16:39.440Z,0.00
2022-11-02T01:17:39.522Z,0.00
2022-11-02T01:18:39.682Z,0.00
2022-11-02T01:19:39.815Z,0.00
2022-11-02T01:20:39.941Z,0.00
2022-11-02T01:21:40.064Z,0.00
2022-11-02T01:22:40.173Z,0.00
2022-11-02T01:23:40.280Z,0.00
2022-11-02T01:24:40.422Z,0.00
2022-11-02T01:25:40.550Z,0.00
2022-11-02T01:26:40.661Z,0.00
2022-11-02T01:27:40.758Z,0.00
2022-11-02T01:28:40.880Z,0.00
2022-11-02T01:29:41.062Z,0.00
2022-11-02T01:30:41.153Z,0.00
2022-11-02T01:31:41.354Z,0.00
2022-11-02T01:32:41.409Z,0.00
2022-11-02T01:33:41.498Z,0.00
2022-11-02T01:34:41.729Z,0.00
2022-11-02T01:35:41.781Z,0.00
2022-11-02T01:36:41.895Z,0.00
2022-11-02T01:37:42.028Z,0.00
2022-11-02T01:38:42.206Z,0.00
2022-11-02T01:39:42.339Z,0.00
2022-11-02T01:40:42.450Z,0.00
2022-11-02T01:41:42.537Z,0.00
2022-11-02T01:42:42.658Z,0.00
2022-11-02T01:43:42.767Z,0.00
2022-11-02T01:44:42.967Z,0.00
2022-11-02T01:45:43.006Z,0.00
2022-11-02T01:46:43.147Z,0.00
2022-11-02T01:47:43.306Z,0.00
2022-11-02T01:48:43.408Z,0.00
2022-11-02T01:49:43.573Z,0.00
2022-11-02T01:50:43.629Z,0.00
2022-11-02T01:51:43.715Z,0.00
2022-11-02T01:52:43.918Z,0.00
2022-11-02T01:53:44.003Z,0.00
2022-11-02T01:54:44.127Z,0.00
2022-11-02T01:55:44.225Z,0.00
2022-11-02T01:56:44.327Z,0.00
2022-11-02T01:57:44.432Z,0.00
2022-11-02T01:58:44.632Z,0.00
2022-11-02T01:59:44.774Z,0.00
2022-11-02T02:00:44.863Z,0.00
2022-11-02T02:01:45.064Z,0.00
2022-11-02T02:02:45.184Z,0.00
2022-11-02T02:03:45.220Z,0.00
2022-11-02T02:04:45.363Z,0.00
2022-11-02T02:05:45.460Z,0.00
2022-11-02T02:06:45.551Z,0.00
2022-11-02T02:07:45.702Z,0.00
2022-11-02T02:08:45.845Z,0.00
2022-11-02T02:09:48.766Z,0.00
2022-11-02T02:10:47.079Z,0.00
2022-11-02T02:11:46.142Z,0.00
2022-11-02T02:12:46.303Z,0.00
2022-11-02T02:13:46.424Z,0.00
2022-11-02T02:14:46.543Z,0.00
2022-11-02T02:15:46.622Z,0.00
2022-11-02T02:17:46.875Z,0.00
2022-11-02T02:18:47.044Z,0.00
2022-11-02T02:19:47.141Z,0.00
2022-11-02T02:20:47.239Z,0.00
2022-11-02T02:21:47.398Z,0.00
2022-11-02T02:22:47.522Z,0.00
2022-11-02T02:23:47.587Z,0.00
2022-11-02T02:24:47.766Z,0.00
2022-11-02T02:25:47.899Z,0.00
2022-11-02T02:26:47.996Z,0.00
2022-11-02T02:27:48.137Z,0.00
2022-11-02T02:28:48.237Z,0.00
2022-11-02T02:29:48.425Z,0.00
2022-11-02T02:30:48.455Z,0.00
2022-11-02T02:31:48.608Z,0.00
2022-11-02T02:32:48.696Z,0.00
2022-11-02T02:33:48.836Z,0.00
2022-11-02T02:34:49.177Z,0.00
2022-11-02T02:35:49.114Z,0.00
2022-11-02T02:36:49.295Z,0.00
2022-11-02T02:37:49.386Z,0.00
2022-11-02T02:38:49.565Z,0.00
2022-11-02T02:39:49.685Z,0.00
2022-11-02T02:40:49.803Z,0.00
2022-11-02T02:41:49.894Z,0.00
2022-11-02T02:42:50.044Z,0.00
2022-11-02T02:43:50.194Z,0.00
2022-11-02T02:44:50.455Z,0.00
2022-11-02T02:45:50.434Z,0.00
2022-11-02T02:46:53.592Z,0.00
2022-11-02T02:47:51.702Z,0.00
2022-11-02T02:48:50.783Z,0.00
2022-11-02T02:49:50.943Z,0.00
2022-11-02T02:50:51.062Z,0.00
2022-11-02T02:51:51.173Z,0.00
2022-11-02T02:52:51.291Z,0.00
2022-11-02T02:53:51.383Z,0.00
2022-11-02T02:54:51.592Z,0.00
2022-11-02T02:55:51.643Z,0.00
2022-11-02T02:56:51.791Z,0.00
2022-11-02T02:57:51.872Z,0.00
2022-11-02T02:58:52.082Z,0.00
2022-11-02T02:59:52.290Z,0.00
2022-11-02T03:00:52.312Z,0.00
2022-11-02T03:01:52.523Z,0.00
2022-11-02T03:02:52.588Z,0.00
2022-11-02T03:03:52.692Z,0.00
2022-11-02T03:04:52.809Z,0.00
2022-11-02T03:05:52.955Z,0.00
2022-11-02T03:06:53.063Z,0.00
2022-11-02T03:07:53.149Z,0.00
2022-11-02T03:08:53.289Z,0.00
2022-11-02T03:09:53.478Z,0.00
2022-11-02T03:10:53.625Z,0.00
2022-11-02T03:11:53.688Z,0.00
2022-11-02T03:12:53.861Z,0.00
2022-11-02T03:13:53.980Z,0.00
2022-11-02T03:14:54.128Z,0.00
2022-11-02T03:15:54.197Z,0.00
2022-11-02T03:16:54.363Z,0.00
2022-11-02T03:17:54.415Z,0.00
2022-11-02T03:18:54.607Z,0.00
2022-11-02T03:19:54.744Z,0.00
2022-11-02T03:20:54.806Z,0.00
2022-11-02T03:21:54.907Z,0.00
2022-11-02T03:22:55.027Z,0.00
2022-11-02T03:23:55.129Z,0.00
2022-11-02T03:24:55.245Z,0.00
2022-11-02T03:25:55.396Z,0.00
2022-11-02T03:26:55.437Z,0.00
2022-11-02T03:27:55.566Z,0.00
2022-11-02T03:28:55.816Z,0.00
2022-11-02T03:29:56.004Z,0.00
2022-11-02T03:30:55.924Z,0.00
2022-11-02T03:31:56.093Z,0.00
2022-11-02T03:32:56.229Z,0.00
2022-11-02T03:33:56.345Z,0.00
2022-11-02T03:34:56.473Z,0.00
2022-11-02T03:35:56.574Z,0.00
2022-11-02T03:36:56.807Z,0.00
2022-11-02T03:37:56.853Z,0.00
2022-11-02T03:38:56.958Z,0.00
2022-11-02T03:39:57.246Z,0.00
2022-11-02T03:40:57.276Z,0.00
2022-11-02T03:41:57.359Z,0.00
2022-11-02T03:42:57.486Z,0.00
2022-11-02T03:43:57.641Z,0.00
2022-11-02T03:44:57.814Z,0.00
2022-11-02T03:45:57.843Z,0.00
2022-11-02T03:46:57.989Z,0.00
2022-11-02T03:47:58.093Z,0.00
2022-11-02T03:48:58.251Z,0.00
2022-11-02T03:49:58.380Z,0.00
2022-11-02T03:50:58.479Z,0.00
2022-11-02T03:51:58.610Z,0.00
2022-11-02T03:52:58.779Z,0.00
2022-11-02T03:53:58.916Z,0.00
2022-11-02T03:54:59.060Z,0.00
2022-11-02T03:55:59.133Z,0.00
2022-11-02T03:56:59.268Z,0.00
2022-11-02T03:57:59.358Z,0.00
2022-11-02T03:58:59.508Z,0.00
2022-11-02T03:59:59.657Z,0.00
2022-11-02T04:00:59.782Z,0.00
2022-11-02T04:01:59.998Z,0.00
2022-11-02T04:03:00.038Z,0.00
2022-11-02T04:04:00.186Z,0.00
2022-11-02T04:05:00.308Z,0.00
2022-11-02T04:06:00.417Z,0.00
2022-11-02T04:07:00.521Z,0.00
2022-11-02T04:08:00.687Z,0.00
2022-11-02T04:09:00.878Z,0.00
2022-11-02T04:10:00.976Z,0.00
2022-11-02T04:11:01.093Z,0.00
2022-11-02T04:12:01.204Z,0.00
2022-11-02T04:13:01.316Z,0.00
2022-11-02T04:14:01.431Z,0.00
2022-11-02T04:15:01.635Z,0.00
2022-11-02T04:16:01.752Z,0.00
2022-11-02T04:17:01.835Z,0.00
2022-11-02T04:18:02.162Z,0.00
2022-11-02T04:19:02.084Z,0.00
2022-11-02T04:20:02.245Z,0.00
2022-11-02T04:21:02.424Z,0.00
2022-11-02T04:22:02.427Z,0.00
2022-11-02T04:23:02.539Z,0.00
2022-11-02T04:24:02.642Z,0.00
2022-11-02T04:25:02.764Z,0.00
2022-11-02T04:26:02.871Z,0.00
2022-11-02T04:27:02.964Z,0.00
2022-11-02T04:28:03.241Z,0.00
2022-11-02T04:29:03.190Z,0.00
2022-11-02T04:30:03.300Z,0.00
2022-11-02T04:31:03.412Z,0.00
2022-11-02T04:32:03.532Z,0.00
2022-11-02T04:33:03.684Z,0.00
2022-11-02T04:34:03.811Z,0.00
2022-11-02T04:35:03.926Z,0.00
2022-11-02T04:36:04.049Z,0.00
2022-11-02T04:37:04.143Z,0.00
2022-11-02T04:38:04.724Z,0.00
2022-11-02T04:39:04.403Z,0.00
2022-11-02T04:40:04.739Z,0.00
2022-11-02T04:41:04.761Z,0.00
2022-11-02T04:42:04.759Z,0.00
2022-11-02T04:43:04.870Z,0.00
2022-11-02T04:44:04.976Z,0.00
2022-11-02T04:45:05.124Z,0.00
2022-11-02T04:46:05.259Z,0.00
2022-11-02T04:47:05.387Z,0.00
2022-11-02T04:48:05.830Z,0.00
2022-11-02T04:49:05.608Z,0.00
2022-11-02T04:50:05.746Z,0.00
2022-11-02T04:51:05.847Z,0.00
2022-11-02T04:52:05.948Z,0.00
2022-11-02T04:53:06.039Z,0.00
2022-11-02T04:54:06.193Z,0.00
2022-11-02T04:55:06.329Z,0.00
2022-11-02T04:56:06.454Z,0.00
2022-11-02T04:57:06.560Z,0.00
2022-11-02T04:58:07.015Z,0.00
2022-11-02T04:59:06.774Z,0.00
2022-11-02T05:00:06.956Z,0.00
2022-11-02T05:01:07.096Z,0.00
2022-11-02T05:02:07.331Z,0.00
2022-11-02T05:03:09.786Z,0.00
2022-11-02T05:04:08.404Z,0.00
2022-11-02T05:05:07.551Z,0.00
2022-11-02T05:06:07.618Z,0.00
2022-11-02T05:07:07.734Z,0.00
2022-11-02T05:08:07.855Z,0.00
2022-11-02T05:09:07.941Z,0.00
2022-11-02T05:10:08.115Z,0.00
2022-11-02T05:11:08.234Z,0.00
2022-11-02T05:12:08.284Z,0.00
2022-11-02T05:13:08.395Z,0.00
2022-11-02T05:14:08.522Z,0.00
2022-11-02T05:15:08.705Z,0.00
2022-11-02T05:16:08.732Z,0.00
2022-11-02T05:17:08.893Z,0.00
2022-11-02T05:18:09.388Z,0.00
2022-11-02T05:19:10.987Z,0.00
2022-11-02T05:20:09.286Z,0.00
2022-11-02T05:21:09.490Z,0.00
2022-11-02T05:22:09.504Z,0.00
2022-11-02T05:23:09.609Z,0.00
2022-11-02T05:24:09.710Z,0.00
2022-11-02T05:25:10.000Z,0.00
2022-11-02T05:26:09.940Z,0.00
2022-11-02T05:27:10.060Z,0.00
2022-11-02T05:28:10.169Z,0.00
2022-11-02T05:29:10.292Z,0.00
2022-11-02T05:30:10.419Z,0.00
2022-11-02T05:31:10.529Z,0.00
2022-11-02T05:32:10.662Z,0.00
2022-11-02T05:33:10.768Z,0.00
2022-11-02T05:34:10.879Z,0.00
2022-11-02T05:35:11.027Z,0.00
2022-11-02T05:36:11.134Z,0.00
2022-11-02T05:37:11.236Z,0.00
2022-11-02T05:38:11.367Z,0.00
2022-11-02T05:39:11.484Z,0.00
2022-11-02T05:40:11.617Z,0.00
2022-11-02T05:41:11.726Z,0.00
2022-11-02T05:42:11.836Z,0.00
2022-11-02T05:43:11.976Z,0.00
2022-11-02T05:44:12.056Z,0.00
2022-11-02T05:45:12.206Z,0.00
2022-11-02T05:46:12.321Z,0.00
2022-11-02T05:47:12.445Z,0.00
2022-11-02T05:48:12.609Z,0.00
2022-11-02T05:49:12.703Z,0.00
2022-11-02T05:50:12.975Z,0.00
2022-11-02T05:51:12.985Z,0.00
2022-11-02T05:52:13.121Z,0.00
2022-11-02T05:53:13.233Z,0.00
2022-11-02T05:54:13.375Z,4.00
2022-11-02T05:55:13.543Z,4.00
2022-11-02T05:56:13.604Z,4.00
2022-11-02T05:57:13.703Z,4.00
2022-11-02T05:58:13.844Z,0.00
2022-11-02T05:59:13.982Z,0.00
2022-11-02T06:00:14.102Z,4.00
2022-11-02T06:01:14.261Z,4.00
2022-11-02T06:02:14.376Z,4.00
2022-11-02T06:03:14.466Z,4.00
2022-11-02T06:04:14.651Z,4.00
2022-11-02T06:05:14.775Z,8.00
2022-11-02T06:06:14.801Z,8.00
2022-11-02T06:07:14.941Z,8.00
2022-11-02T06:08:15.050Z,12.00
2022-11-02T06:09:15.260Z,16.00
2022-11-02T06:10:15.337Z,16.00
2022-11-02T06:11:15.379Z,16.00
2022-11-02T06:12:15.519Z,20.00
2022-11-02T06:13:15.682Z,24.00
2022-11-02T06:14:15.780Z,28.00
2022-11-02T06:15:15.990Z,32.00
2022-11-02T06:16:20.123Z,40.00
2022-11-02T06:17:17.127Z,44.00
2022-11-02T06:18:16.283Z,48.00
2022-11-02T06:19:16.433Z,60.00
2022-11-02T06:20:16.567Z,68.00
2022-11-02T06:21:16.599Z,80.00
2022-11-02T06:22:16.749Z,84.00
2022-11-02T06:23:16.898Z,96.00
2022-11-02T06:24:17.016Z,108.00
2022-11-02T06:25:17.187Z,116.00
2022-11-02T06:26:17.296Z,136.00
2022-11-02T06:27:17.357Z,144.00
2022-11-02T06:28:17.465Z,156.00
2022-11-02T06:29:17.583Z,176.00
2022-11-02T06:30:17.786Z,188.00
2022-11-02T06:31:17.837Z,208.00
2022-11-02T06:32:17.957Z,224.00
2022-11-02T06:33:18.064Z,252.00
2022-11-02T06:34:18.164Z,264.00
2022-11-02T06:35:18.378Z,284.00
2022-11-02T06:36:18.435Z,308.00
2022-11-02T06:37:18.524Z,332.00
2022-11-02T06:38:18.698Z,356.00
2022-11-02T06:39:18.913Z,380.00
2022-11-02T06:40:21.380Z,392.00
2022-11-02T06:41:20.143Z,424.00
2022-11-02T06:42:19.133Z,444.00
2022-11-02T06:43:19.585Z,488.00
2022-11-02T06:44:19.388Z,500.00
2022-11-02T06:45:19.593Z,532.00
2022-11-02T06:46:19.583Z,568.00
2022-11-02T06:47:19.742Z,588.00
2022-11-02T06:48:19.857Z,616.00
2022-11-02T06:49:19.951Z,632.00
2022-11-02T06:50:20.150Z,664.00
2022-11-02T06:51:20.270Z,696.00
2022-11-02T06:52:20.381Z,728.00
2022-11-02T06:53:20.491Z,788.00
2022-11-02T06:54:20.629Z,776.00
2022-11-02T06:55:20.851Z,768.00
2022-11-02T06:56:20.870Z,820.00
2022-11-02T06:57:20.980Z,852.00
2022-11-02T06:58:21.090Z,904.00
2022-11-02T06:59:21.236Z,948.00
2022-11-02T07:00:23.817Z,912.00
2022-11-02T07:01:21.544Z,936.00
2022-11-02T07:02:21.605Z,1016.00
2022-11-02T07:03:21.661Z,1064.00
2022-11-02T07:04:21.768Z,1068.00
2022-11-02T07:05:21.908Z,1112.00
2022-11-02T07:06:22.055Z,1084.00
2022-11-02T07:07:22.157Z,1032.00
2022-11-02T07:08:22.297Z,1116.00
2022-11-02T07:09:22.397Z,1220.00
2022-11-02T07:10:22.645Z,1208.00
2022-11-02T07:11:22.695Z,1220.00
2022-11-02T07:12:23.300Z,1244.00
2022-11-02T07:13:22.913Z,1268.00
2022-11-02T07:14:23.076Z,1316.00
2022-11-02T07:15:23.197Z,1364.00
2022-11-02T07:16:23.426Z,1368.00
2022-11-02T07:17:26.923Z,1372.00
2022-11-02T07:18:24.543Z,1368.00
2022-11-02T07:19:23.754Z,1404.00
2022-11-02T07:20:23.870Z,1440.00
2022-11-02T07:21:23.924Z,1472.00
2022-11-02T07:22:24.026Z,1480.00
2022-11-02T07:23:24.289Z,1548.00
2022-11-02T07:24:24.253Z,1492.00
2022-11-02T07:25:24.490Z,1524.00
2022-11-02T07:26:24.523Z,1628.00
2022-11-02T07:27:24.692Z,1652.00
2022-11-02T07:28:24.810Z,1672.00
2022-11-02T07:29:24.922Z,1708.00
2022-11-02T07:30:25.034Z,1712.00
2022-11-02T07:31:25.151Z,1676.00
2022-11-02T07:32:25.251Z,1672.00
2022-11-02T07:33:25.402Z,1628.00
2022-11-02T07:34:25.522Z,1732.00
2022-11-02T07:35:25.682Z,1832.00
2022-11-02T07:36:25.740Z,1824.00
2022-11-02T07:37:25.841Z,2068.00
2022-11-02T07:38:25.959Z,2116.00
2022-11-02T07:39:26.075Z,1984.00
2022-11-02T07:40:26.211Z,2156.00
2022-11-02T07:41:26.361Z,2008.00
2022-11-02T07:42:26.464Z,2436.00
2022-11-02T07:43:26.610Z,2316.00
2022-11-02T07:44:26.742Z,2136.00
2022-11-02T07:45:26.871Z,2212.00
2022-11-02T07:46:26.989Z,2032.00
2022-11-02T07:47:27.110Z,2348.00
2022-11-02T07:48:27.222Z,2100.00
2022-11-02T07:49:27.314Z,2216.00
2022-11-02T07:50:27.530Z,2116.00
2022-11-02T07:51:27.631Z,2244.00
2022-11-02T07:52:27.752Z,2292.00
2022-11-02T07:53:27.848Z,2120.00
2022-11-02T07:54:27.999Z,2136.00
2022-11-02T07:55:28.178Z,2316.00
2022-11-02T07:56:28.327Z,2148.00
2022-11-02T07:57:28.407Z,2320.00
2022-11-02T07:58:28.605Z,2348.00
2022-11-02T07:59:28.695Z,2360.00
2022-11-02T08:00:28.865Z,2320.00
2022-11-02T08:01:28.945Z,2216.00
2022-11-02T08:02:29.124Z,3016.00
2022-11-02T08:03:29.202Z,2468.00
2022-11-02T08:04:29.290Z,3400.00
2022-11-02T08:05:29.440Z,2648.00
2022-11-02T08:06:29.495Z,2456.00
2022-11-02T08:07:29.594Z,2436.00
2022-11-02T08:08:29.739Z,2208.00
2022-11-02T08:09:29.887Z,2416.00
2022-11-02T08:10:33.910Z,2416.00
2022-11-02T08:11:31.253Z,2284.00
2022-11-02T08:12:30.284Z,2204.00
2022-11-02T08:13:32.805Z,2220.00
2022-11-02T08:14:30.599Z,2308.00
2022-11-02T08:15:30.800Z,2348.00
2022-11-02T08:16:30.797Z,2464.00
2022-11-02T08:17:30.901Z,2400.00
2022-11-02T08:18:31.002Z,2384.00
2022-11-02T08:19:31.103Z,2380.00
2022-11-02T08:20:31.210Z,2392.00
2022-11-02T08:21:31.342Z,2476.00
2022-11-02T08:22:31.467Z,2448.00
2022-11-02T08:23:31.553Z,2428.00
2022-11-02T08:24:31.661Z,2456.00
2022-11-02T08:25:31.912Z,2624.00
2022-11-02T08:26:31.912Z,2604.00
2022-11-02T08:27:32.034Z,2628.00
2022-11-02T08:28:32.172Z,2876.00
2022-11-02T08:29:32.268Z,3148.00
2022-11-02T08:30:32.420Z,3572.00
2022-11-02T08:31:33.089Z,3800.00
2022-11-02T08:32:32.657Z,4084.00
2022-11-02T08:33:32.781Z,4332.00
2022-11-02T08:34:32.887Z,4368.00
2022-11-02T08:35:33.100Z,4420.00
2022-11-02T08:36:33.229Z,4384.00
2022-11-02T08:37:33.268Z,4340.00
2022-11-02T08:38:33.390Z,4352.00
2022-11-02T08:39:33.499Z,4432.00
2022-11-02T08:40:33.797Z,4344.00
2022-11-02T08:41:33.754Z,4504.00
2022-11-02T08:42:33.871Z,4564.00
2022-11-02T08:43:33.965Z,4564.00
2022-11-02T08:44:36.608Z,4464.00
2022-11-02T08:46:00.642Z,3896.00
2022-11-02T08:46:35.346Z,3536.00
2022-11-02T08:47:34.536Z,3920.00
2022-11-02T08:48:34.574Z,3548.00
2022-11-02T08:49:34.737Z,3868.00
2022-11-02T08:50:34.856Z,5060.00
2022-11-02T08:51:34.985Z,6492.00
2022-11-02T08:52:40.307Z,5236.00
2022-11-02T08:53:36.204Z,4864.00
2022-11-02T08:54:35.354Z,4884.00
2022-11-02T08:55:35.552Z,4740.00
2022-11-02T08:56:35.644Z,4820.00
2022-11-02T08:57:35.755Z,4952.00
2022-11-02T08:58:35.873Z,4832.00
2022-11-02T08:59:35.983Z,4840.00
2022-11-02T09:00:36.123Z,4892.00
2022-11-02T09:01:36.309Z,4920.00
2022-11-02T09:02:36.423Z,4960.00
2022-11-02T09:03:36.514Z,4956.00
2022-11-02T09:04:36.617Z,5032.00
2022-11-02T09:05:36.802Z,4964.00
2022-11-02T09:06:36.904Z,5116.00
2022-11-02T09:07:37.019Z,5128.00
2022-11-02T09:08:37.112Z,5100.00
2022-11-02T09:09:37.203Z,5200.00
2022-11-02T09:10:37.410Z,5252.00
2022-11-02T09:11:37.505Z,5244.00
2022-11-02T09:12:37.603Z,5288.00
2022-11-02T09:13:37.819Z,5220.00
2022-11-02T09:14:37.872Z,5264.00
2022-11-02T09:15:38.050Z,5024.00
2022-11-02T09:16:41.396Z,4948.00
2022-11-02T09:17:38.210Z,4632.00
2022-11-02T09:18:38.328Z,4768.00
2022-11-02T09:19:38.439Z,5448.00
2022-11-02T09:20:38.589Z,4932.00
2022-11-02T09:21:38.702Z,5116.00
2022-11-02T09:22:38.809Z,5316.00
2022-11-02T09:23:38.929Z,5164.00
2022-11-02T09:24:39.022Z,4984.00
2022-11-02T09:25:39.188Z,4968.00
2022-11-02T09:26:39.323Z,5276.00
2022-11-02T09:27:39.418Z,5880.00
2022-11-02T09:28:39.558Z,5824.00
2022-11-02T09:29:39.669Z,5720.00
2022-11-02T09:30:39.796Z,5848.00
2022-11-02T09:31:39.910Z,5348.00
2022-11-02T09:32:40.020Z,5376.00
2022-11-02T09:33:40.108Z,5820.00
2022-11-02T09:34:40.229Z,5760.00
2022-11-02T09:35:40.408Z,5836.00
2022-11-02T09:36:40.507Z,5900.00
2022-11-02T09:37:40.620Z,5384.00
2022-11-02T09:38:40.726Z,5040.00
2022-11-02T09:39:40.837Z,4972.00
2022-11-02T09:40:40.989Z,4824.00
2022-11-02T09:41:41.107Z,4436.00
2022-11-02T09:42:41.206Z,4456.00
2022-11-02T09:43:41.305Z,4532.00
2022-11-02T09:44:41.445Z,4440.00
2022-11-02T09:45:41.604Z,4336.00
2022-11-02T09:46:41.646Z,3968.00
2022-11-02T09:48:14.795Z,3880.00
2022-11-02T09:48:42.954Z,4116.00
2022-11-02T09:49:42.055Z,3896.00
2022-11-02T09:50:42.184Z,3748.00
2022-11-02T09:51:42.297Z,3912.00
2022-11-02T09:52:42.416Z,3880.00
2022-11-02T09:53:42.528Z,3840.00
2022-11-02T09:54:42.624Z,4384.00
2022-11-02T09:55:42.754Z,3868.00
2022-11-02T09:56:42.914Z,4548.00
2022-11-02T09:57:42.955Z,4464.00
2022-11-02T09:58:43.053Z,5432.00
2022-11-02T09:59:43.163Z,4740.00
2022-11-02T10:00:43.334Z,3908.00
2022-11-02T10:01:43.499Z,3936.00
2022-11-02T10:02:43.610Z,4728.00
2022-11-02T10:03:43.633Z,4444.00
2022-11-02T10:04:43.784Z,3880.00
2022-11-02T10:05:43.944Z,3684.00
2022-11-02T10:06:44.019Z,3728.00
2022-11-02T10:07:44.144Z,3804.00
2022-11-02T10:08:44.272Z,3732.00
2022-11-02T10:09:44.382Z,3688.00
2022-11-02T10:10:44.593Z,3888.00
2022-11-02T10:11:44.624Z,3960.00
2022-11-02T10:12:44.730Z,3732.00
2022-11-02T10:13:44.840Z,3712.00
2022-11-02T10:14:44.940Z,3716.00
2022-11-02T10:15:45.143Z,3684.00
2022-11-02T10:16:45.211Z,3680.00
2022-11-02T10:17:45.333Z,3664.00
2022-11-02T10:18:45.462Z,3684.00
2022-11-02T10:19:45.553Z,3692.00
2022-11-02T10:20:45.718Z,3688.00
2022-11-02T10:21:45.789Z,3764.00
2022-11-02T10:22:45.889Z,3760.00
2022-11-02T10:23:45.983Z,3740.00
2022-11-02T10:24:46.155Z,3752.00
2022-11-02T10:25:46.323Z,3744.00
2022-11-02T10:26:46.368Z,3824.00
2022-11-02T10:27:46.492Z,3048.00
2022-11-02T10:28:46.580Z,3832.00
2022-11-02T10:29:46.683Z,3800.00
2022-11-02T10:30:46.841Z,3844.00
2022-11-02T10:31:46.890Z,3788.00
2022-11-02T10:32:47.577Z,3872.00
2022-11-02T10:33:47.087Z,3888.00
2022-11-02T10:34:58.511Z,3296.00
2022-11-02T10:36:12.510Z,3896.00
2022-11-02T10:36:48.508Z,3876.00
2022-11-02T10:37:47.667Z,4448.00
2022-11-02T10:38:47.767Z,3980.00
2022-11-02T10:39:47.863Z,4024.00
2022-11-02T10:40:48.036Z,4496.00
2022-11-02T10:41:48.174Z,3884.00
2022-11-02T10:42:48.291Z,3784.00
2022-11-02T10:43:52.112Z,3880.00
2022-11-02T10:44:48.513Z,3848.00
2022-11-02T10:45:48.605Z,3880.00
2022-11-02T10:46:48.825Z,4580.00
2022-11-02T10:47:48.874Z,4204.00
2022-11-02T10:48:49.024Z,4368.00
2022-11-02T10:49:49.114Z,4452.00
2022-11-02T10:50:49.282Z,4720.00
2022-11-02T10:51:49.403Z,5300.00
2022-11-02T10:52:49.526Z,4300.00
2022-11-02T10:53:50.141Z,3892.00
2022-11-02T10:54:49.743Z,3832.00
2022-11-02T10:55:49.916Z,3868.00
2022-11-02T10:56:50.173Z,3856.00
2022-11-02T10:57:50.111Z,3832.00
2022-11-02T10:58:50.282Z,3848.00
2022-11-02T10:59:54.771Z,3932.00
2022-11-02T11:00:51.568Z,3924.00
2022-11-02T11:01:50.697Z,3864.00
2022-11-02T11:02:50.732Z,4048.00
2022-11-02T11:03:50.832Z,4340.00
2022-11-02T11:04:51.471Z,3860.00
2022-11-02T11:05:51.032Z,3844.00
2022-11-02T11:06:51.182Z,4560.00
2022-11-02T11:07:51.292Z,3848.00
2022-11-02T11:08:51.419Z,4404.00
2022-11-02T11:09:51.521Z,5900.00
2022-11-02T11:10:51.612Z,5288.00
2022-11-02T11:11:51.809Z,4404.00
2022-11-02T11:12:51.942Z,4280.00
2022-11-02T11:15:53.292Z,4216.00
2022-11-02T11:16:52.661Z,5152.00
2022-11-02T11:19:53.748Z,7120.00
2022-11-02T11:20:52.808Z,7104.00
2022-11-02T11:21:53.018Z,4568.00
2022-11-02T11:22:53.058Z,4636.00
2022-11-02T11:23:53.218Z,5000.00
2022-11-02T11:24:53.315Z,5368.00
2022-11-02T11:25:53.484Z,5180.00
2022-11-02T11:26:58.005Z,8120.00
2022-11-02T11:27:54.696Z,10020.00
2022-11-02T11:28:53.850Z,6480.00
2022-11-02T11:29:53.955Z,6292.00
2022-11-02T11:30:59.816Z,8184.00
2022-11-02T11:31:55.386Z,8128.00
2022-11-02T11:32:54.324Z,9556.00
2022-11-02T11:33:54.438Z,8968.00
2022-11-02T11:34:54.546Z,6448.00
2022-11-02T11:35:54.664Z,5508.00
2022-11-02T11:36:54.916Z,5768.00
2022-11-02T11:37:54.892Z,6400.00
2022-11-02T11:38:55.015Z,7772.00
2022-11-02T11:39:55.197Z,7028.00
2022-11-02T11:40:55.237Z,5680.00
2022-11-02T11:41:55.403Z,6416.00
2022-11-02T11:42:59.975Z,5592.00
2022-11-02T11:43:56.563Z,6336.00
2022-11-02T11:44:55.694Z,5608.00
2022-11-02T11:45:57.303Z,5128.00
2022-11-02T11:46:55.994Z,5204.00
2022-11-02T11:47:56.141Z,5180.00
2022-11-02T11:48:56.232Z,5388.00
2022-11-02T11:50:08.540Z,5004.00
2022-11-02T11:50:57.462Z,4904.00
2022-11-02T11:51:56.623Z,5012.00
2022-11-02T11:52:56.666Z,6592.00
2022-11-02T11:53:56.783Z,8640.00
2022-11-02T11:54:56.901Z,7388.00
2022-11-02T11:55:57.001Z,6028.00
2022-11-02T11:56:57.244Z,6820.00
2022-11-02T11:57:57.252Z,8180.00
2022-11-02T11:58:57.352Z,5680.00
2022-11-02T11:59:57.473Z,5372.00
2022-11-02T12:00:57.582Z,4360.00
2022-11-02T12:01:57.846Z,4248.00
2022-11-02T12:02:57.850Z,6072.00
2022-11-02T12:03:57.899Z,8104.00
2022-11-02T12:04:57.992Z,8892.00
2022-11-02T12:05:58.153Z,6348.00
2022-11-02T12:06:58.426Z,5968.00
2022-11-02T12:07:58.410Z,5688.00
2022-11-02T12:09:03.181Z,6112.00
2022-11-02T12:09:59.653Z,7088.00
2022-11-02T12:10:58.749Z,6824.00
2022-11-02T12:11:58.927Z,8628.00
2022-11-02T12:12:58.970Z,7840.00
2022-11-02T12:13:59.080Z,5752.00
2022-11-02T12:15:05.460Z,5952.00
2022-11-02T12:16:00.317Z,4800.00
2022-11-02T12:17:00.167Z,4376.00
2022-11-02T12:17:59.570Z,4824.00
2022-11-02T12:19:59.770Z,5412.00
2022-11-02T12:20:59.929Z,4108.00
2022-11-02T12:22:00.080Z,3460.00
2022-11-02T12:23:00.193Z,3764.00
2022-11-02T12:24:00.332Z,4624.00
2022-11-02T12:25:00.424Z,4384.00
2022-11-02T12:26:03.301Z,4368.00
2022-11-02T12:27:01.775Z,4684.00
2022-11-02T12:28:00.808Z,6888.00
2022-11-02T12:29:00.936Z,8124.00
2022-11-02T12:30:01.047Z,7560.00
2022-11-02T12:31:01.144Z,6680.00
2022-11-02T12:32:01.357Z,7336.00
2022-11-02T12:33:01.436Z,6556.00
2022-11-02T12:34:01.545Z,5968.00
2022-11-02T12:35:27.789Z,5752.00
2022-11-02T12:36:02.829Z,4984.00
2022-11-02T12:38:03.388Z,3800.00
2022-11-02T12:39:02.214Z,3960.00
2022-11-02T12:40:02.338Z,4588.00
2022-11-02T12:41:02.453Z,6016.00
2022-11-02T12:42:02.600Z,5332.00
2022-11-02T12:43:02.957Z,7248.00
2022-11-02T12:44:02.836Z,9964.00
2022-11-02T12:45:02.947Z,11180.00
2022-11-02T12:46:03.042Z,9392.00
2022-11-02T12:47:03.144Z,7856.00
2022-11-02T12:48:03.614Z,8128.00
2022-11-02T12:49:03.365Z,8408.00
2022-11-02T12:50:03.471Z,7128.00